createdAt,value
2018-06-06T00:00:47.347Z,24.39
2018-06-06T00:01:47.373Z,24.51
2018-06-06T00:02:47.403Z,24.45
2018-06-06T00:03:47.431Z,24.43
2018-06-06T00:04:47.205Z,24.33
2018-06-06T00:05:47.242Z,24.3
2018-06-06T00:06:47.257Z,24.17
2018-06-06T00:07:47.583Z,24.26
2018-06-06T00:08:47.602Z,24.16
2018-06-06T00:09:47.594Z,24.06
2018-06-06T00:10:47.363Z,23.99
2018-06-06T00:11:47.641Z,23.99
2018-06-06T00:12:47.666Z,24.08
2018-06-06T00:13:47.464Z,24.11
2018-06-06T00:14:47.715Z,24.06
2018-06-06T00:15:47.750Z,24.02
2018-06-06T00:16:47.780Z,24.14
2018-06-06T00:17:47.545Z,23.98
2018-06-06T00:18:47.825Z,23.95
2018-06-06T00:19:47.854Z,23.95
2018-06-06T00:20:47.626Z,23.93
2018-06-06T00:21:47.660Z,23.92
2018-06-06T00:22:47.728Z,23.92
2018-06-06T00:23:47.706Z,23.99
2018-06-06T00:24:47.988Z,23.91
2018-06-06T00:25:48.010Z,23.88
2018-06-06T00:26:48.040Z,24.03
2018-06-06T00:27:48.064Z,23.93
2018-06-06T00:28:48.089Z,23.8
2018-06-06T00:29:48.119Z,23.87
2018-06-06T00:30:48.147Z,23.84
2018-06-06T00:31:48.186Z,23.84
2018-06-06T00:32:48.212Z,23.95
2018-06-06T00:33:48.228Z,23.87
2018-06-06T00:34:48.256Z,23.84
2018-06-06T00:35:48.272Z,23.71
2018-06-06T00:36:48.341Z,23.71
2018-06-06T00:37:48.375Z,23.81
2018-06-06T00:38:48.352Z,23.51
2018-06-06T00:39:48.131Z,23.62
2018-06-06T00:40:48.405Z,23.58
2018-06-06T00:41:48.193Z,23.61
2018-06-06T00:42:48.456Z,23.63
2018-06-06T00:43:48.513Z,23.71
2018-06-06T00:44:48.509Z,23.74
2018-06-06T00:45:48.296Z,23.76
2018-06-06T00:46:48.589Z,23.74
2018-06-06T00:47:48.601Z,23.91
2018-06-06T00:48:48.628Z,23.71
2018-06-06T00:49:48.657Z,23.56
2018-06-06T00:50:48.679Z,23.56
2018-06-06T00:51:48.458Z,23.44
2018-06-06T00:52:48.278Z,23.59
2018-06-06T00:53:48.505Z,23.63
2018-06-06T00:54:48.531Z,23.55
2018-06-06T00:55:48.562Z,23.51
2018-06-06T00:56:48.852Z,23.47
2018-06-06T00:57:48.615Z,23.32
2018-06-06T00:58:48.640Z,23.4
2018-06-06T00:59:48.720Z,23.43
2018-06-06T01:00:48.947Z,23.46
2018-06-06T01:01:48.721Z,23.48
2018-06-06T01:02:48.751Z,23.47
2018-06-06T01:03:49.026Z,23.54
2018-06-06T01:04:49.052Z,23.61
2018-06-06T01:05:49.081Z,23.63
2018-06-06T01:06:48.857Z,23.46
2018-06-06T01:07:49.184Z,23.5
2018-06-06T01:08:48.905Z,23.43
2018-06-06T01:09:49.189Z,23.44
2018-06-06T01:10:49.221Z,23.37
2018-06-06T01:11:48.990Z,23.39
2018-06-06T01:12:49.268Z,23.31
2018-06-06T01:13:49.290Z,23.48
2018-06-06T01:14:49.322Z,23.48
2018-06-06T01:15:49.348Z,23.48
2018-06-06T01:16:49.111Z,23.51
2018-06-06T01:17:49.395Z,23.48
2018-06-06T01:18:49.418Z,23.46
2018-06-06T01:19:49.496Z,23.5
2018-06-06T01:20:49.475Z,23.48
2018-06-06T01:21:49.500Z,23.58
2018-06-06T01:22:49.328Z,23.55
2018-06-06T01:23:49.046Z,23.58
2018-06-06T01:24:49.326Z,23.48
2018-06-06T01:25:49.608Z,23.32
2018-06-06T01:26:49.633Z,23.31
2018-06-06T01:27:49.660Z,23.24
2018-06-06T01:28:49.432Z,23.23
2018-06-06T01:29:49.459Z,23.13
2018-06-06T01:30:49.735Z,23.31
2018-06-06T01:31:49.515Z,23.32
2018-06-06T01:32:49.790Z,23.27
2018-06-06T01:33:49.814Z,23.31
2018-06-06T01:34:49.588Z,23.28
2018-06-06T01:35:49.659Z,23.31
2018-06-06T01:36:49.923Z,23.25
2018-06-06T01:37:49.975Z,23.37
2018-06-06T01:38:50.058Z,23.31
2018-06-06T01:39:49.983Z,23.36
2018-06-06T01:40:50.007Z,23.4
2018-06-06T01:41:50.025Z,23.36
2018-06-06T01:42:50.064Z,23.27
2018-06-06T01:43:49.829Z,23.2
2018-06-06T01:44:50.118Z,23.21
2018-06-06T01:45:49.884Z,23.25
2018-06-06T01:46:50.164Z,23.27
2018-06-06T01:47:50.191Z,23.31
2018-06-06T01:48:49.958Z,23.27
2018-06-06T01:49:49.987Z,23.28
2018-06-06T01:50:50.017Z,23.28
2018-06-06T01:51:50.295Z,23.18
2018-06-06T01:52:50.116Z,23.25
2018-06-06T01:53:50.342Z,23.25
2018-06-06T01:54:50.381Z,23.31
2018-06-06T01:55:49.889Z,23.31
2018-06-06T01:56:50.425Z,23.2
2018-06-06T01:57:49.941Z,23.23
2018-06-06T01:58:50.221Z,23.21
2018-06-06T01:59:50.508Z,23.25
2018-06-06T02:00:50.531Z,23.17
2018-06-06T02:01:50.555Z,23.21
2018-06-06T02:02:50.586Z,23.2
2018-06-06T02:03:50.357Z,23.2
2018-06-06T02:04:50.635Z,23.23
2018-06-06T02:05:50.663Z,23.27
2018-06-06T02:06:50.432Z,23.27
2018-06-06T02:07:50.506Z,23.21
2018-06-06T02:08:50.492Z,23.18
2018-06-06T02:09:50.796Z,23.18
2018-06-06T02:10:50.797Z,23.15
2018-06-06T02:11:50.820Z,23.2
2018-06-06T02:12:50.841Z,23.1
2018-06-06T02:13:50.868Z,23.03
2018-06-06T02:14:50.402Z,23.05
2018-06-06T02:15:50.921Z,23.02
2018-06-06T02:16:50.951Z,23.09
2018-06-06T02:17:50.517Z,23.09
2018-06-06T02:18:50.752Z,23.13
2018-06-06T02:19:50.515Z,23.15
2018-06-06T02:20:50.803Z,23.17
2018-06-06T02:21:51.074Z,23.17
2018-06-06T02:22:51.123Z,23.1
2018-06-06T02:23:50.880Z,23.18
2018-06-06T02:24:51.154Z,23.05
2018-06-06T02:25:51.182Z,22.98
2018-06-06T02:26:51.239Z,22.99
2018-06-06T02:27:50.975Z,22.98
2018-06-06T02:28:51.001Z,22.99
2018-06-06T02:29:51.281Z,22.96
2018-06-06T02:30:51.312Z,22.99
2018-06-06T02:31:51.354Z,22.98
2018-06-06T02:32:51.408Z,22.88
2018-06-06T02:33:51.392Z,22.94
2018-06-06T02:34:51.212Z,22.84
2018-06-06T02:35:51.439Z,22.72
2018-06-06T02:36:51.477Z,22.62
2018-06-06T02:37:51.484Z,22.7
2018-06-06T02:38:51.525Z,22.75
2018-06-06T02:39:51.537Z,22.62
2018-06-06T02:40:51.566Z,22.76
2018-06-06T02:41:51.602Z,22.7
2018-06-06T02:42:51.367Z,22.69
2018-06-06T02:43:51.388Z,22.68
2018-06-06T02:44:51.433Z,22.62
2018-06-06T02:45:51.694Z,22.65
2018-06-06T02:46:51.736Z,22.7
2018-06-06T02:47:51.795Z,22.57
2018-06-06T02:48:51.785Z,22.6
2018-06-06T02:49:51.797Z,22.53
2018-06-06T02:50:51.829Z,22.66
2018-06-06T02:51:51.856Z,22.65
2018-06-06T02:52:51.625Z,22.65
2018-06-06T02:53:51.651Z,22.59
2018-06-06T02:54:51.928Z,22.44
2018-06-06T02:55:51.966Z,22.5
2018-06-06T02:56:51.974Z,22.5
2018-06-06T02:57:52.014Z,22.41
2018-06-06T02:58:52.026Z,22.28
2018-06-06T02:59:52.052Z,22.32
2018-06-06T03:00:52.082Z,22.36
2018-06-06T03:01:52.112Z,22.45
2018-06-06T03:02:51.882Z,22.35
2018-06-06T03:03:51.908Z,22.29
2018-06-06T03:04:51.931Z,22.3
2018-06-06T03:05:52.217Z,22.29
2018-06-06T03:06:52.236Z,22.51
2018-06-06T03:07:52.261Z,22.44
2018-06-06T03:08:52.025Z,22.51
2018-06-06T03:09:52.308Z,22.5
2018-06-06T03:10:52.073Z,22.53
2018-06-06T03:11:52.100Z,22.54
2018-06-06T03:12:52.127Z,22.48
2018-06-06T03:13:52.401Z,22.43
2018-06-06T03:14:52.175Z,22.47
2018-06-06T03:15:52.462Z,22.45
2018-06-06T03:16:52.793Z,22.23
2018-06-06T03:17:52.522Z,22.22
2018-06-06T03:18:52.546Z,22.25
2018-06-06T03:19:52.323Z,22.22
2018-06-06T03:20:52.340Z,22.28
2018-06-06T03:21:52.618Z,22.41
2018-06-06T03:22:52.394Z,22.3
2018-06-06T03:23:52.684Z,22.23
2018-06-06T03:24:52.697Z,22.26
2018-06-06T03:25:52.719Z,22.33
2018-06-06T03:26:52.493Z,22.29
2018-06-06T03:27:52.781Z,22.32
2018-06-06T03:28:52.547Z,22.38
2018-06-06T03:29:52.828Z,22.2
2018-06-06T03:30:52.857Z,22.22
2018-06-06T03:31:52.625Z,22.13
2018-06-06T03:32:52.908Z,22.18
2018-06-06T03:33:52.930Z,22.14
2018-06-06T03:34:52.957Z,22.17
2018-06-06T03:35:52.971Z,22.15
2018-06-06T03:36:52.999Z,22.1
2018-06-06T03:37:53.032Z,22.08
2018-06-06T03:38:52.793Z,22.15
2018-06-06T03:39:53.075Z,22.25
2018-06-06T03:40:53.097Z,22.35
2018-06-06T03:41:52.871Z,22.28
2018-06-06T03:42:52.896Z,22.26
2018-06-06T03:43:53.176Z,22.28
2018-06-06T03:44:53.212Z,22.44
2018-06-06T03:45:52.968Z,22.45
2018-06-06T03:46:53.248Z,22.44
2018-06-06T03:47:53.269Z,22.43
2018-06-06T03:48:53.298Z,22.44
2018-06-06T03:49:53.324Z,22.33
2018-06-06T03:50:53.360Z,22.45
2018-06-06T03:51:53.123Z,22.33
2018-06-06T03:52:53.399Z,22.44
2018-06-06T03:53:53.422Z,22.41
2018-06-06T03:54:53.212Z,22.36
2018-06-06T03:55:53.495Z,22.43
2018-06-06T03:56:53.277Z,22.41
2018-06-06T03:57:53.540Z,22.39
2018-06-06T03:58:53.333Z,22.41
2018-06-06T03:59:53.593Z,22.38
2018-06-06T04:00:53.365Z,22.5
2018-06-06T04:01:53.642Z,22.5
2018-06-06T04:02:53.676Z,22.5
2018-06-06T04:03:53.433Z,22.47
2018-06-06T04:04:53.202Z,22.55
2018-06-06T04:05:53.770Z,22.68
2018-06-06T04:06:53.265Z,22.6
2018-06-06T04:07:53.797Z,22.48
2018-06-06T04:08:53.823Z,22.51
2018-06-06T04:09:53.597Z,22.5
2018-06-06T04:10:53.624Z,22.57
2018-06-06T04:11:53.930Z,22.62
2018-06-06T04:12:53.672Z,22.72
2018-06-06T04:13:53.939Z,22.72
2018-06-06T04:14:53.711Z,22.69
2018-06-06T04:15:53.992Z,22.63
2018-06-06T04:16:53.768Z,22.65
2018-06-06T04:17:54.062Z,22.69
2018-06-06T04:18:53.825Z,22.62
2018-06-06T04:19:54.107Z,22.65
2018-06-06T04:20:53.879Z,22.65
2018-06-06T04:21:53.902Z,22.65
2018-06-06T04:22:54.196Z,22.48
2018-06-06T04:23:54.210Z,22.43
2018-06-06T04:24:54.235Z,22.28
2018-06-06T04:25:54.260Z,22.26
2018-06-06T04:26:54.289Z,22.28
2018-06-06T04:27:54.307Z,22.15
2018-06-06T04:28:54.080Z,22.13
2018-06-06T04:29:54.110Z,22.26
2018-06-06T04:30:54.138Z,22.33
2018-06-06T04:31:54.405Z,22.29
2018-06-06T04:32:54.437Z,22.22
2018-06-06T04:33:54.210Z,22.13
2018-06-06T04:34:54.486Z,22.25
2018-06-06T04:35:54.514Z,22.28
2018-06-06T04:36:54.542Z,22.3
2018-06-06T04:37:54.057Z,22.15
2018-06-06T04:38:54.590Z,22.14
2018-06-06T04:39:54.788Z,22.15
2018-06-06T04:40:54.390Z,22.26
2018-06-06T04:41:54.417Z,22.48
2018-06-06T04:42:54.440Z,22.57
2018-06-06T04:43:54.469Z,22.5
2018-06-06T04:44:54.505Z,22.59
2018-06-06T04:45:54.534Z,22.65
2018-06-06T04:46:54.809Z,22.53
2018-06-06T04:47:54.827Z,22.45
2018-06-06T04:48:54.853Z,22.44
2018-06-06T04:49:54.883Z,22.44
2018-06-06T04:50:54.901Z,22.5
2018-06-06T04:51:54.928Z,22.48
2018-06-06T04:52:54.706Z,22.48
2018-06-06T04:53:54.731Z,22.36
2018-06-06T04:54:55.014Z,22.22
2018-06-06T04:55:55.031Z,22.3
2018-06-06T04:56:55.070Z,22.32
2018-06-06T04:57:55.089Z,22.44
2018-06-06T04:58:55.110Z,22.45
2018-06-06T04:59:55.140Z,22.48
2018-06-06T05:00:54.900Z,22.39
2018-06-06T05:01:54.939Z,22.54
2018-06-06T05:02:55.209Z,22.76
2018-06-06T05:03:55.244Z,22.73
2018-06-06T05:04:55.008Z,22.76
2018-06-06T05:05:55.299Z,22.62
2018-06-06T05:06:55.064Z,22.73
2018-06-06T05:07:55.094Z,22.81
2018-06-06T05:08:55.371Z,22.8
2018-06-06T05:09:55.392Z,22.83
2018-06-06T05:10:55.380Z,22.76
2018-06-06T05:11:55.189Z,22.81
2018-06-06T05:12:55.486Z,22.75
2018-06-06T05:13:55.495Z,22.63
2018-06-06T05:14:55.808Z,22.75
2018-06-06T05:15:55.553Z,22.8
2018-06-06T05:16:55.320Z,22.78
2018-06-06T05:17:55.346Z,22.76
2018-06-06T05:18:55.678Z,22.75
2018-06-06T05:19:55.639Z,22.8
2018-06-06T05:20:55.750Z,22.84
2018-06-06T05:21:55.457Z,22.99
2018-06-06T05:22:55.481Z,22.94
2018-06-06T05:23:55.764Z,23.02
2018-06-06T05:24:55.533Z,23.05
2018-06-06T05:25:55.830Z,23.21
2018-06-06T05:26:55.707Z,23.21
2018-06-06T05:27:55.868Z,23.21
2018-06-06T05:28:55.386Z,23.2
2018-06-06T05:29:55.925Z,23.12
2018-06-06T05:30:55.947Z,23.17
2018-06-06T05:31:55.734Z,23.1
2018-06-06T05:32:55.999Z,23.2
2018-06-06T05:33:55.819Z,23.31
2018-06-06T05:34:55.803Z,23.4
2018-06-06T05:35:55.824Z,23.37
2018-06-06T05:36:56.105Z,23.41
2018-06-06T05:37:55.875Z,23.39
2018-06-06T05:38:56.143Z,23.41
2018-06-06T05:39:55.915Z,23.36
2018-06-06T05:40:55.945Z,23.4
2018-06-06T05:41:56.219Z,23.43
2018-06-06T05:42:55.994Z,23.43
2018-06-06T05:43:56.272Z,23.47
2018-06-06T05:44:56.298Z,23.5
2018-06-06T05:45:56.072Z,23.56
2018-06-06T05:46:56.122Z,23.56
2018-06-06T05:47:56.401Z,23.74
2018-06-06T05:48:56.455Z,23.73
2018-06-06T05:49:56.419Z,23.78
2018-06-06T05:50:56.449Z,23.71
2018-06-06T05:51:56.487Z,23.63
2018-06-06T05:52:56.508Z,23.55
2018-06-06T05:53:56.528Z,23.66
2018-06-06T05:54:56.564Z,23.65
2018-06-06T05:55:56.333Z,23.73
2018-06-06T05:56:56.381Z,23.91
2018-06-06T05:57:56.665Z,23.91
2018-06-06T05:58:56.682Z,23.98
2018-06-06T05:59:56.459Z,24.08
2018-06-06T06:00:56.487Z,24.11
2018-06-06T06:01:56.762Z,24.2
2018-06-06T06:02:56.642Z,24.01
2018-06-06T06:03:56.869Z,24.13
2018-06-06T06:04:56.590Z,24.2
2018-06-06T06:05:56.620Z,24.16
2018-06-06T06:06:56.897Z,24.17
2018-06-06T06:07:56.924Z,24.17
2018-06-06T06:08:56.949Z,24.33
2018-06-06T06:09:56.977Z,24.28
2018-06-06T06:10:57.032Z,24.3
2018-06-06T06:11:57.031Z,24.26
2018-06-06T06:12:57.061Z,24.32
2018-06-06T06:13:57.087Z,24.47
2018-06-06T06:14:56.871Z,24.53
2018-06-06T06:15:57.139Z,24.63
2018-06-06T06:16:57.174Z,24.65
2018-06-06T06:17:56.940Z,24.6
2018-06-06T06:18:57.274Z,24.61
2018-06-06T06:19:57.248Z,24.58
2018-06-06T06:20:57.276Z,24.54
2018-06-06T06:21:57.300Z,24.55
2018-06-06T06:22:57.333Z,24.74
2018-06-06T06:23:56.950Z,24.78
2018-06-06T06:24:57.134Z,24.84
2018-06-06T06:25:57.400Z,24.92
2018-06-06T06:26:57.430Z,25.13
2018-06-06T06:27:57.460Z,25.14
2018-06-06T06:28:57.236Z,25.25
2018-06-06T06:29:57.562Z,25.32
2018-06-06T06:30:57.544Z,25.4
2018-06-06T06:31:57.567Z,25.53
2018-06-06T06:32:57.605Z,25.55
2018-06-06T06:33:57.418Z,25.62
2018-06-06T06:34:57.403Z,25.44
2018-06-06T06:35:57.742Z,25.4
2018-06-06T06:36:57.706Z,25.59
2018-06-06T06:37:57.730Z,25.55
2018-06-06T06:38:57.569Z,25.69
2018-06-06T06:39:57.787Z,25.58
2018-06-06T06:40:57.822Z,25.33
2018-06-06T06:41:57.839Z,25.22
2018-06-06T06:42:57.623Z,25.33
2018-06-06T06:43:57.899Z,25.31
2018-06-06T06:44:57.925Z,25.4
2018-06-06T06:45:57.694Z,25.46
2018-06-06T06:46:58.080Z,25.23
2018-06-06T06:47:57.993Z,25.23
2018-06-06T06:48:57.773Z,25.38
2018-06-06T06:49:57.799Z,25.26
2018-06-06T06:50:58.098Z,25.38
2018-06-06T06:51:57.600Z,25.55
2018-06-06T06:52:57.877Z,25.54
2018-06-06T06:53:58.211Z,25.62
2018-06-06T06:54:58.202Z,25.51
2018-06-06T06:55:58.225Z,25.43
2018-06-06T06:56:58.253Z,25.59
2018-06-06T06:57:58.338Z,25.59
2018-06-06T06:58:58.327Z,25.58
2018-06-06T06:59:58.336Z,25.55
2018-06-06T07:00:58.362Z,25.59
2018-06-06T07:01:58.445Z,25.68
2018-06-06T07:02:58.417Z,25.69
2018-06-06T07:03:58.445Z,25.73
2018-06-06T07:04:58.476Z,25.88
2018-06-06T07:05:58.518Z,25.88
2018-06-06T07:06:58.300Z,25.91
2018-06-06T07:07:58.552Z,25.8
2018-06-06T07:08:58.636Z,25.84
2018-06-06T07:09:58.611Z,25.68
2018-06-06T07:10:58.131Z,25.8
2018-06-06T07:11:58.833Z,25.85
2018-06-06T07:12:58.443Z,25.84
2018-06-06T07:13:58.717Z,26.03
2018-06-06T07:14:58.754Z,26.07
2018-06-06T07:15:58.517Z,26.05
2018-06-06T07:16:58.796Z,26.03
2018-06-06T07:17:58.572Z,26.03
2018-06-06T07:18:58.983Z,26.15
2018-06-06T07:19:58.878Z,26.15
2018-06-06T07:20:58.652Z,26.26
2018-06-06T07:21:58.681Z,26.31
2018-06-06T07:22:58.986Z,26.38
2018-06-06T07:23:58.792Z,26.45
2018-06-06T07:24:59.012Z,26.36
2018-06-06T07:25:58.796Z,26.41
2018-06-06T07:26:59.077Z,26.51
2018-06-06T07:27:59.106Z,26.47
2018-06-06T07:28:59.177Z,26.56
2018-06-06T07:29:59.155Z,26.51
2018-06-06T07:30:59.186Z,26.51
2018-06-06T07:31:59.217Z,26.51
2018-06-06T07:32:59.244Z,26.56
2018-06-06T07:33:59.043Z,26.75
2018-06-06T07:34:59.307Z,26.63
2018-06-06T07:35:59.334Z,26.74
2018-06-06T07:36:59.363Z,26.77
2018-06-06T07:37:59.482Z,26.83
2018-06-06T07:38:59.211Z,26.75
2018-06-06T07:39:59.452Z,26.65
2018-06-06T07:40:59.470Z,26.78
2018-06-06T07:41:59.515Z,26.88
2018-06-06T07:42:59.305Z,26.84
2018-06-06T07:43:59.554Z,26.78
2018-06-06T07:44:59.370Z,26.48
2018-06-06T07:45:59.613Z,26.58
2018-06-06T07:46:59.642Z,26.73
2018-06-06T07:47:59.671Z,26.89
2018-06-06T07:48:59.444Z,26.96
2018-06-06T07:49:59.725Z,26.92
2018-06-06T07:50:59.756Z,27.05
2018-06-06T07:51:59.513Z,27.05
2018-06-06T07:52:59.794Z,26.96
2018-06-06T07:53:59.871Z,26.81
2018-06-06T07:54:59.844Z,26.63
2018-06-06T07:55:59.877Z,26.73
2018-06-06T07:56:59.908Z,26.85
2018-06-06T07:57:59.684Z,27.05
2018-06-06T07:58:59.958Z,27
2018-06-06T07:59:59.739Z,27.08
2018-06-06T08:01:00.049Z,26.93
2018-06-06T08:02:00.083Z,26.81
2018-06-06T08:02:59.592Z,26.74
2018-06-06T08:04:00.021Z,26.84
2018-06-06T08:04:59.904Z,26.88
2018-06-06T08:06:00.180Z,27.05
2018-06-06T08:07:00.210Z,27.11
2018-06-06T08:08:00.031Z,27.11
2018-06-06T08:09:00.067Z,27.18
2018-06-06T08:10:00.047Z,27.21
2018-06-06T08:11:00.329Z,27.1
2018-06-06T08:12:00.345Z,27.27
2018-06-06T08:13:00.121Z,27.45
2018-06-06T08:14:00.414Z,27.58
2018-06-06T08:15:00.188Z,27.78
2018-06-06T08:16:00.214Z,27.82
2018-06-06T08:17:00.245Z,27.86
2018-06-06T08:18:00.689Z,27.8
2018-06-06T08:19:00.300Z,27.96
2018-06-06T08:20:00.581Z,27.9
2018-06-06T08:21:00.611Z,27.96
2018-06-06T08:22:00.131Z,28.14
2018-06-06T08:23:00.418Z,28.08
2018-06-06T08:24:00.747Z,28.23
2018-06-06T08:25:00.468Z,28.22
2018-06-06T08:26:00.752Z,28.27
2018-06-06T08:27:00.779Z,28.44
2018-06-06T08:28:00.808Z,28.19
2018-06-06T08:29:00.822Z,28.35
2018-06-06T08:30:00.849Z,28.27
2018-06-06T08:31:00.894Z,28.27
2018-06-06T08:32:00.926Z,28.45
2018-06-06T08:33:00.955Z,28.51
2018-06-06T08:34:00.996Z,28.66
2018-06-06T08:35:01.017Z,28.79
2018-06-06T08:36:01.038Z,28.94
2018-06-06T08:37:01.067Z,28.81
2018-06-06T08:38:01.091Z,28.82
2018-06-06T08:39:00.918Z,28.67
2018-06-06T08:40:01.153Z,28.75
2018-06-06T08:41:00.928Z,28.66
2018-06-06T08:42:01.215Z,28.63
2018-06-06T08:43:01.241Z,28.64
2018-06-06T08:44:01.022Z,28.81
2018-06-06T08:45:01.302Z,28.85
2018-06-06T08:46:01.337Z,29.04
2018-06-06T08:47:01.351Z,28.98
2018-06-06T08:48:01.134Z,29.17
2018-06-06T08:49:01.426Z,29.12
2018-06-06T08:50:01.441Z,29.1
2018-06-06T08:51:01.472Z,29.22
2018-06-06T08:52:01.528Z,29.27
2018-06-06T08:53:01.526Z,29.29
2018-06-06T08:54:01.609Z,29.36
2018-06-06T08:55:01.587Z,29.32
2018-06-06T08:56:01.622Z,29.26
2018-06-06T08:57:01.656Z,29.2
2018-06-06T08:58:01.684Z,29.1
2018-06-06T08:59:01.714Z,29.39
2018-06-06T09:00:01.510Z,29.59
2018-06-06T09:01:01.776Z,29.71
2018-06-06T09:02:01.810Z,29.72
2018-06-06T09:03:01.581Z,29.35
2018-06-06T09:04:01.628Z,29.24
2018-06-06T09:05:01.644Z,28.91
2018-06-06T09:06:01.932Z,29.08
2018-06-06T09:07:01.686Z,29.34
2018-06-06T09:08:01.713Z,29.51
2018-06-06T09:09:02.045Z,29.78
2018-06-06T09:10:02.029Z,29.88
2018-06-06T09:11:01.814Z,29.95
2018-06-06T09:12:01.848Z,30.09
2018-06-06T09:13:02.136Z,30.09
2018-06-06T09:14:02.163Z,29.9
2018-06-06T09:15:02.195Z,29.87
2018-06-06T09:16:01.960Z,29.88
2018-06-06T09:17:02.005Z,29.93
2018-06-06T09:18:02.021Z,30.19
2018-06-06T09:19:02.414Z,30.34
2018-06-06T09:20:02.332Z,30.4
2018-06-06T09:21:02.369Z,30.55
2018-06-06T09:22:02.408Z,30.7
2018-06-06T09:23:02.169Z,30.72
2018-06-06T09:24:02.256Z,30.8
2018-06-06T09:25:02.492Z,30.87
2018-06-06T09:26:02.523Z,31.12
2018-06-06T09:27:02.297Z,31.17
2018-06-06T09:28:02.579Z,31.05
2018-06-06T09:29:02.361Z,30.81
2018-06-06T09:30:02.422Z,30.75
2018-06-06T09:31:02.422Z,30.96
2018-06-06T09:32:02.709Z,31.03
2018-06-06T09:33:02.510Z,30.96
2018-06-06T09:34:02.760Z,31
2018-06-06T09:35:02.637Z,30.91
2018-06-06T09:36:02.824Z,31.1
2018-06-06T09:37:02.858Z,31.12
2018-06-06T09:38:02.893Z,31.22
2018-06-06T09:39:02.979Z,30.85
2018-06-06T09:40:02.957Z,31.06
2018-06-06T09:41:02.982Z,31.25
2018-06-06T09:42:02.761Z,31.34
2018-06-06T09:43:02.792Z,31.42
2018-06-06T09:44:03.073Z,31.55
2018-06-06T09:45:02.861Z,31.62
2018-06-06T09:46:03.135Z,32.01
2018-06-06T09:47:03.168Z,32.31
2018-06-06T09:48:03.352Z,32.73
2018-06-06T09:49:03.230Z,32.85
2018-06-06T09:50:03.258Z,33.3
2018-06-06T09:51:03.294Z,33.22
2018-06-06T09:52:03.325Z,33.3
2018-06-06T09:53:03.107Z,33.67
2018-06-06T09:54:02.933Z,33.9
2018-06-06T09:55:03.424Z,34.45
2018-06-06T09:56:03.200Z,34.42
2018-06-06T09:57:03.636Z,33.79
2018-06-06T09:58:03.537Z,33.52
2018-06-06T09:59:03.544Z,33.37
2018-06-06T10:00:03.311Z,33.59
2018-06-06T10:01:03.350Z,33.64
2018-06-06T10:02:03.660Z,33.98
2018-06-06T10:03:03.159Z,34.36
2018-06-06T10:04:03.440Z,34.66
2018-06-06T10:05:03.730Z,35.18
2018-06-06T10:06:03.510Z,35.48
2018-06-06T10:07:03.807Z,35.56
2018-06-06T10:08:03.842Z,35.58
2018-06-06T10:09:03.927Z,35.7
2018-06-06T10:10:03.638Z,35.78
2018-06-06T10:11:03.926Z,36.12
2018-06-06T10:12:03.967Z,36.04
2018-06-06T10:13:03.987Z,36.28
2018-06-06T10:14:04.025Z,36.55
2018-06-06T10:15:03.800Z,36.79
2018-06-06T10:16:03.586Z,36.76
2018-06-06T10:17:04.123Z,36.55
2018-06-06T10:18:04.171Z,36.92
2018-06-06T10:19:03.954Z,36.93
2018-06-06T10:20:03.985Z,36.79
2018-06-06T10:21:04.277Z,36.84
2018-06-06T10:22:04.055Z,37.07
2018-06-06T10:23:04.103Z,37.11
2018-06-06T10:24:05.478Z,37.32
2018-06-06T10:25:04.411Z,37.29
2018-06-06T10:26:04.456Z,37.47
2018-06-06T10:27:04.522Z,37.6
2018-06-06T10:28:04.261Z,37.94
2018-06-06T10:29:04.293Z,38.23
2018-06-06T10:30:04.328Z,38.27
2018-06-06T10:31:04.626Z,38.49
2018-06-06T10:32:04.648Z,38.67
2018-06-06T10:33:04.693Z,38.91
2018-06-06T10:34:04.468Z,39.12
2018-06-06T10:35:04.756Z,39.26
2018-06-06T10:36:04.792Z,39.29
2018-06-06T10:37:04.569Z,39.26
2018-06-06T10:38:04.602Z,39.37
2018-06-06T10:39:04.684Z,39.46
2018-06-06T10:40:04.809Z,39.48
2018-06-06T10:41:04.961Z,39.38
2018-06-06T10:42:04.997Z,39.34
2018-06-06T10:43:04.791Z,39.3
2018-06-06T10:44:04.832Z,39.68
2018-06-06T10:45:05.107Z,39.78
2018-06-06T10:46:04.887Z,39.85
2018-06-06T10:47:04.669Z,39.75
2018-06-06T10:48:05.212Z,39.83
2018-06-06T10:49:05.243Z,40.16
2018-06-06T10:50:05.281Z,39.59
2018-06-06T10:51:05.317Z,39.34
2018-06-06T10:52:05.350Z,38.67
2018-06-06T10:53:05.389Z,38.33
2018-06-06T10:54:05.483Z,39
2018-06-06T10:55:05.185Z,39.58
2018-06-06T10:56:05.224Z,39.92
2018-06-06T10:57:05.506Z,40.06
2018-06-06T10:58:05.541Z,40.18
2018-06-06T10:59:05.651Z,40.62
2018-06-06T11:00:05.389Z,40.72
2018-06-06T11:01:05.670Z,41.07
2018-06-06T11:02:05.712Z,41.06
2018-06-06T11:03:05.745Z,41.07
2018-06-06T11:04:05.777Z,41.22
2018-06-06T11:05:05.810Z,41.09
2018-06-06T11:06:05.847Z,40.62
2018-06-06T11:07:05.631Z,40.15
2018-06-06T11:08:05.412Z,40.26
2018-06-06T11:09:05.451Z,40.3
2018-06-06T11:10:05.488Z,40.58
2018-06-06T11:11:05.811Z,40.92
2018-06-06T11:12:05.830Z,40.91
2018-06-06T11:13:05.845Z,41.18
2018-06-06T11:14:06.185Z,41.43
2018-06-06T11:15:05.679Z,41.91
2018-06-06T11:16:05.707Z,41.88
2018-06-06T11:17:05.996Z,42.19
2018-06-06T11:18:06.281Z,41.77
2018-06-06T11:19:06.312Z,41.71
2018-06-06T11:20:06.101Z,41.63
2018-06-06T11:21:06.135Z,41.92
2018-06-06T11:22:06.191Z,42.12
2018-06-06T11:23:06.215Z,42.5
2018-06-06T11:24:06.020Z,42.38
2018-06-06T11:25:06.316Z,40.99
2018-06-06T11:26:06.578Z,40.43
2018-06-06T11:27:06.372Z,40.12
2018-06-06T11:28:06.655Z,40.34
2018-06-06T11:29:06.487Z,39.78
2018-06-06T11:30:06.476Z,40.34
2018-06-06T11:31:06.756Z,40.99
2018-06-06T11:32:06.538Z,41.62
2018-06-06T11:33:06.577Z,41.87
2018-06-06T11:34:06.713Z,42.38
2018-06-06T11:35:06.905Z,42.58
2018-06-06T11:36:06.689Z,42.66
2018-06-06T11:37:06.987Z,42.85
2018-06-06T11:38:06.769Z,42.88
2018-06-06T11:39:06.802Z,43.13
2018-06-06T11:40:06.843Z,43.68
2018-06-06T11:41:07.136Z,43.48
2018-06-06T11:42:06.683Z,43.64
2018-06-06T11:43:07.207Z,43.72
2018-06-06T11:44:07.315Z,44.15
2018-06-06T11:45:07.285Z,43.87
2018-06-06T11:46:07.319Z,43.81
2018-06-06T11:47:07.353Z,44.01
2018-06-06T11:48:07.448Z,43.68
2018-06-06T11:49:06.930Z,43.46
2018-06-06T11:50:07.342Z,42.51
2018-06-06T11:51:07.509Z,42.48
2018-06-06T11:52:07.295Z,42.91
2018-06-06T11:53:07.345Z,43.01
2018-06-06T11:54:07.614Z,43.45
2018-06-06T11:55:07.398Z,43.77
2018-06-06T11:56:07.183Z,43.77
2018-06-06T11:57:07.473Z,44.05
2018-06-06T11:58:07.768Z,43.35
2018-06-06T11:59:07.346Z,42.78
2018-06-06T12:00:07.596Z,42.82
2018-06-06T12:01:08.028Z,43.42
2018-06-06T12:02:07.921Z,43.84
2018-06-06T12:03:07.956Z,44.39
2018-06-06T12:04:07.999Z,45.08
2018-06-06T12:05:07.777Z,45.59
2018-06-06T12:06:07.562Z,45.59
2018-06-06T12:07:08.097Z,45.62
2018-06-06T12:08:08.178Z,45.77
2018-06-06T12:09:07.666Z,46.1
2018-06-06T12:10:08.212Z,46.48
2018-06-06T12:11:08.246Z,46.82
2018-06-06T12:12:08.302Z,46.86
2018-06-06T12:13:08.332Z,46.29
2018-06-06T12:14:08.375Z,46.57
2018-06-06T12:15:08.158Z,46.88
2018-06-06T12:16:08.183Z,47.34
2018-06-06T12:17:08.464Z,47.29
2018-06-06T12:18:08.002Z,47.62
2018-06-06T12:19:08.054Z,47.64
2018-06-06T12:20:08.344Z,47.83
2018-06-06T12:21:08.649Z,47.96
2018-06-06T12:22:08.675Z,48.25
2018-06-06T12:23:08.467Z,48.63
2018-06-06T12:24:08.759Z,48.55
2018-06-06T12:25:08.548Z,48.77
2018-06-06T12:26:08.588Z,48.63
2018-06-06T12:27:08.622Z,48.44
2018-06-06T12:28:08.664Z,48.45
2018-06-06T12:29:08.954Z,48.59
2018-06-06T12:30:08.737Z,48.33
2018-06-06T12:31:08.777Z,48.07
2018-06-06T12:32:09.065Z,47.64
2018-06-06T12:33:09.129Z,47.2
2018-06-06T12:34:08.890Z,46.36
2018-06-06T12:35:09.193Z,46.5
2018-06-06T12:36:08.974Z,46.31
2018-06-06T12:37:09.267Z,46.26
2018-06-06T12:38:09.046Z,46.41
2018-06-06T12:39:09.090Z,46.13
2018-06-06T12:40:09.415Z,45.96
2018-06-06T12:41:09.419Z,45.96
2018-06-06T12:42:09.207Z,45.66
2018-06-06T12:43:08.993Z,45.75
2018-06-06T12:44:09.546Z,45.77
2018-06-06T12:45:09.335Z,46
2018-06-06T12:46:09.620Z,46.47
2018-06-06T12:47:09.403Z,46.8
2018-06-06T12:48:09.691Z,47.23
2018-06-06T12:49:09.738Z,47.22
2018-06-06T12:50:09.523Z,46.96
2018-06-06T12:51:09.646Z,46.2
2018-06-06T12:52:09.856Z,46.66
2018-06-06T12:53:09.643Z,47.08
2018-06-06T12:54:09.425Z,47.36
2018-06-06T12:55:09.986Z,47.61
2018-06-06T12:56:09.502Z,47.77